createdAt,value
2023-09-09T00:00:13.804Z,19.22
2023-09-09T00:02:46.331Z,19.12
2023-09-09T00:05:18.589Z,19.07
2023-09-09T00:07:45.246Z,19.06
2023-09-09T00:10:18.294Z,18.96
2023-09-09T00:12:57.940Z,19.02
2023-09-09T00:15:24.698Z,19.02
2023-09-09T00:17:54.530Z,19.02
2023-09-09T00:20:30.337Z,19.08
2023-09-09T00:23:09.199Z,19.02
2023-09-09T00:25:45.512Z,19.01
2023-09-09T00:28:18.743Z,18.88
2023-09-09T00:30:47.910Z,18.81
2023-09-09T00:33:17.580Z,18.82
2023-09-09T00:35:44.227Z,18.85
2023-09-09T00:38:18.134Z,18.78
2023-09-09T00:40:51.909Z,18.68
2023-09-09T00:43:21.692Z,18.72
2023-09-09T00:45:54.673Z,18.78
2023-09-09T00:48:27.143Z,18.77
2023-09-09T00:50:57.878Z,18.64
2023-09-09T00:53:25.153Z,18.61
2023-09-09T00:56:02.545Z,18.67
2023-09-09T00:58:41.627Z,18.50
2023-09-09T01:01:13.734Z,18.48
2023-09-09T01:03:40.593Z,18.37
2023-09-09T01:06:10.567Z,18.39
2023-09-09T01:08:39.794Z,18.52
2023-09-09T01:11:14.202Z,18.50
2023-09-09T01:13:44.449Z,18.47
2023-09-09T01:16:12.075Z,18.36
2023-09-09T01:18:43.562Z,18.31
2023-09-09T01:21:16.465Z,18.40
2023-09-09T01:23:53.142Z,18.35
2023-09-09T01:26:25.568Z,18.27
2023-09-09T01:28:54.862Z,18.21
2023-09-09T01:31:24.787Z,18.23
2023-09-09T01:33:59.792Z,18.23
2023-09-09T01:36:32.320Z,18.21
2023-09-09T01:39:01.948Z,18.18
2023-09-09T01:41:33.833Z,18.12
2023-09-09T01:44:08.989Z,18.15
2023-09-09T01:46:41.428Z,18.13
2023-09-09T01:49:16.542Z,18.22
2023-09-09T01:51:46.134Z,18.21
2023-09-09T01:54:20.926Z,18.20
2023-09-09T01:56:50.430Z,18.19
2023-09-09T01:59:22.839Z,18.15
2023-09-09T02:01:52.843Z,18.10
2023-09-09T02:04:22.556Z,18.14
2023-09-09T02:06:54.883Z,18.06
2023-09-09T02:09:27.314Z,18.05
2023-09-09T02:12:00.074Z,17.98
2023-09-09T02:14:35.597Z,18.01
2023-09-09T02:17:13.156Z,17.92
2023-09-09T02:19:45.224Z,17.96
2023-09-09T02:22:19.005Z,17.90
2023-09-09T02:25:09.498Z,17.95
2023-09-09T02:27:39.676Z,17.92
2023-09-09T02:30:09.847Z,17.84
2023-09-09T02:32:45.115Z,17.82
2023-09-09T02:35:14.980Z,17.82
2023-09-09T02:37:50.189Z,17.79
2023-09-09T02:40:20.238Z,17.78
2023-09-09T02:42:55.323Z,17.74
2023-09-09T02:45:27.909Z,17.70
2023-09-09T02:47:57.647Z,17.73
2023-09-09T02:50:35.800Z,17.70
2023-09-09T02:53:05.615Z,17.63
2023-09-09T02:55:35.666Z,17.62
2023-09-09T02:58:04.732Z,17.59
2023-09-09T03:00:34.794Z,17.50
2023-09-09T03:03:04.725Z,17.48
2023-09-09T03:05:46.327Z,17.50
2023-09-09T03:08:18.270Z,17.58
2023-09-09T03:10:50.761Z,17.55
2023-09-09T03:13:17.677Z,17.58
2023-09-09T03:15:47.521Z,17.58
2023-09-09T03:18:19.398Z,17.56
2023-09-09T03:20:48.895Z,17.54
2023-09-09T03:23:18.355Z,17.53
2023-09-09T03:25:53.614Z,17.49
2023-09-09T03:28:21.619Z,17.53
2023-09-09T03:31:00.307Z,17.50
2023-09-09T03:33:32.354Z,17.42
2023-09-09T03:36:02.047Z,17.34
2023-09-09T03:38:34.188Z,17.22
2023-09-09T03:41:03.768Z,17.25
2023-09-09T03:43:38.282Z,17.30
2023-09-09T03:46:11.274Z,17.29
2023-09-09T03:48:50.369Z,17.21
2023-09-09T03:51:18.611Z,17.23
2023-09-09T03:53:48.333Z,17.13
2023-09-09T03:56:19.450Z,17.03
2023-09-09T03:58:49.217Z,17.13
2023-09-09T04:01:18.402Z,17.08
2023-09-09T04:03:52.361Z,17.03
2023-09-09T04:06:23.820Z,17.04
2023-09-09T04:08:59.273Z,17.07
2023-09-09T04:11:31.754Z,16.99
2023-09-09T04:14:07.352Z,16.96
2023-09-09T04:16:40.057Z,16.90
2023-09-09T04:19:08.895Z,16.88
2023-09-09T04:21:41.211Z,16.83
2023-09-09T04:24:16.509Z,16.91
2023-09-09T04:26:47.119Z,16.95
2023-09-09T04:29:19.630Z,16.89
2023-09-09T04:31:53.494Z,16.83
2023-09-09T04:34:22.825Z,16.76
2023-09-09T04:36:54.847Z,16.88
2023-09-09T04:39:35.455Z,16.85
2023-09-09T04:42:07.852Z,16.84
2023-09-09T04:44:43.463Z,16.71
2023-09-09T04:47:13.506Z,16.79
2023-09-09T04:49:44.138Z,16.78
2023-09-09T04:52:19.876Z,16.73
2023-09-09T04:54:50.612Z,16.73
2023-09-09T04:57:21.879Z,16.76
2023-09-09T04:59:51.720Z,16.82
2023-09-09T05:02:22.294Z,16.79
2023-09-09T05:04:56.245Z,16.71
2023-09-09T05:07:27.135Z,16.70
2023-09-09T05:09:54.127Z,16.66
2023-09-09T05:12:26.717Z,16.61
2023-09-09T05:14:57.252Z,16.55
2023-09-09T05:17:29.205Z,16.61
2023-09-09T05:20:04.329Z,16.53
2023-09-09T05:22:42.539Z,16.63
2023-09-09T05:25:14.961Z,16.59
2023-09-09T05:27:42.349Z,16.69
2023-09-09T05:30:14.274Z,16.66
2023-09-09T05:32:46.849Z,16.68
2023-09-09T05:35:25.188Z,16.82
2023-09-09T05:38:00.300Z,16.85
2023-09-09T05:40:27.231Z,16.75
2023-09-09T05:42:57.157Z,16.95
2023-09-09T05:45:30.352Z,16.98
2023-09-09T05:48:02.762Z,17.01
2023-09-09T05:50:32.476Z,17.06
2023-09-09T05:53:02.675Z,17.00
2023-09-09T05:55:36.287Z,16.94
2023-09-09T05:58:05.577Z,16.90
2023-09-09T06:00:40.688Z,16.95
2023-09-09T06:03:12.724Z,17.06
2023-09-09T06:05:44.822Z,17.04
2023-09-09T06:08:17.290Z,17.17
2023-09-09T06:10:50.177Z,17.30
2023-09-09T06:13:25.036Z,17.30
2023-09-09T06:15:55.193Z,17.30
2023-09-09T06:18:29.336Z,17.38
2023-09-09T06:21:07.275Z,17.49
2023-09-09T06:23:37.053Z,17.57
2023-09-09T06:26:04.126Z,17.67
2023-09-09T06:28:36.096Z,17.70
2023-09-09T06:31:08.613Z,17.71
2023-09-09T06:33:41.939Z,17.74
2023-09-09T06:36:17.581Z,17.84
2023-09-09T06:38:50.265Z,17.89
2023-09-09T06:41:23.984Z,17.95
2023-09-09T06:43:56.632Z,18.12
2023-09-09T06:46:25.698Z,18.20
2023-09-09T06:49:02.884Z,18.32
2023-09-09T06:51:34.821Z,18.41
2023-09-09T06:54:10.192Z,18.48
2023-09-09T06:56:43.658Z,18.59
2023-09-09T06:59:19.104Z,18.74
2023-09-09T07:01:49.736Z,18.85
2023-09-09T07:04:19.444Z,18.98
2023-09-09T07:07:11.416Z,19.11
2023-09-09T07:09:45.722Z,19.25
2023-09-09T07:12:17.250Z,19.36
2023-09-09T07:14:44.226Z,19.42
2023-09-09T07:17:16.595Z,19.47
2023-09-09T07:19:48.864Z,19.72
2023-09-09T07:22:19.770Z,19.79
2023-09-09T07:24:55.244Z,19.95
2023-09-09T07:27:25.301Z,20.23
2023-09-09T07:29:57.557Z,20.41
2023-09-09T07:32:24.049Z,20.56
2023-09-09T07:34:51.229Z,20.68
2023-09-09T07:37:18.551Z,20.73
2023-09-09T07:39:54.540Z,20.87
2023-09-09T07:42:21.095Z,21.07
2023-09-09T07:44:47.717Z,21.21
2023-09-09T07:47:22.162Z,21.30
2023-09-09T07:49:49.356Z,21.46
2023-09-09T07:52:21.255Z,21.59
2023-09-09T07:54:50.314Z,21.70
2023-09-09T07:57:20.219Z,21.82
2023-09-09T07:59:52.439Z,21.86
2023-09-09T08:02:23.055Z,22.08
2023-09-09T08:04:54.710Z,22.28
2023-09-09T08:07:24.072Z,22.39
2023-09-09T08:09:54.541Z,22.66
2023-09-09T08:12:24.190Z,22.69
2023-09-09T08:15:11.388Z,22.86
2023-09-09T08:17:42.090Z,23.07
2023-09-09T08:20:12.193Z,23.05
2023-09-09T08:22:40.025Z,23.25
2023-09-09T08:25:09.564Z,23.38
2023-09-09T08:27:44.093Z,23.36
2023-09-09T08:30:18.269Z,23.59
2023-09-09T08:32:47.793Z,23.52
2023-09-09T08:35:26.235Z,23.78
2023-09-09T08:38:02.792Z,23.96
2023-09-09T08:40:39.632Z,24.12
2023-09-09T08:43:12.022Z,24.27
2023-09-09T08:45:59.788Z,24.41
2023-09-09T08:48:33.157Z,24.53
2023-09-09T08:51:01.361Z,24.54
2023-09-09T08:53:33.144Z,24.69
2023-09-09T08:56:01.853Z,24.77
2023-09-09T08:58:29.156Z,24.84
2023-09-09T09:00:56.221Z,24.93
2023-09-09T09:03:25.849Z,25.10
2023-09-09T09:06:00.560Z,25.24
2023-09-09T09:08:31.199Z,25.32
2023-09-09T09:11:02.592Z,25.41
2023-09-09T09:13:33.445Z,25.49
2023-09-09T09:16:09.583Z,25.54
2023-09-09T09:18:37.268Z,25.67
2023-09-09T09:21:11.373Z,25.77
2023-09-09T09:23:47.715Z,25.91
2023-09-09T09:26:24.418Z,26.01
2023-09-09T09:28:54.484Z,26.22
2023-09-09T09:31:25.553Z,26.32
2023-09-09T09:33:58.695Z,26.34
2023-09-09T09:36:28.679Z,26.51
2023-09-09T09:39:01.346Z,26.40
2023-09-09T09:41:29.284Z,26.49
2023-09-09T09:44:01.323Z,26.55
2023-09-09T09:46:36.442Z,26.55
2023-09-09T09:49:17.762Z,26.46
2023-09-09T09:51:47.614Z,26.65
2023-09-09T09:54:25.732Z,26.66
2023-09-09T09:57:05.476Z,27.01
2023-09-09T09:59:40.053Z,27.27
2023-09-09T10:02:15.665Z,27.53
2023-09-09T10:04:45.485Z,27.48
2023-09-09T10:07:27.556Z,27.75
2023-09-09T10:10:09.462Z,28.12
2023-09-09T10:13:02.364Z,28.62
2023-09-09T10:15:35.303Z,28.50
2023-09-09T10:18:03.812Z,28.89
2023-09-09T10:20:37.939Z,29.50
2023-09-09T10:23:08.659Z,29.15
2023-09-09T10:25:40.021Z,29.17
2023-09-09T10:28:09.202Z,29.50
2023-09-09T10:30:43.786Z,29.79
2023-09-09T10:33:17.266Z,30.13
2023-09-09T10:35:54.568Z,30.30
2023-09-09T10:38:26.531Z,30.44
2023-09-09T10:40:59.536Z,30.66
2023-09-09T10:43:35.401Z,30.81
2023-09-09T10:46:04.699Z,30.85
2023-09-09T10:48:33.955Z,31.08
2023-09-09T10:51:12.887Z,31.23
2023-09-09T10:53:46.207Z,31.24
2023-09-09T10:56:18.125Z,30.62
2023-09-09T10:58:48.338Z,30.86
2023-09-09T11:01:27.862Z,30.83
2023-09-09T11:04:05.691Z,30.90
2023-09-09T11:06:33.086Z,30.59
2023-09-09T11:09:06.624Z,30.73
2023-09-09T11:11:43.220Z,30.61
2023-09-09T11:14:16.974Z,30.95
2023-09-09T11:16:47.139Z,31.14
2023-09-09T11:19:17.853Z,31.14
2023-09-09T11:21:48.977Z,30.89
2023-09-09T11:24:16.139Z,31.21
2023-09-09T11:26:50.706Z,31.91
2023-09-09T11:29:36.484Z,31.96
2023-09-09T11:32:12.293Z,32.31
2023-09-09T11:34:50.811Z,32.57
2023-09-09T11:37:20.460Z,32.80
2023-09-09T11:39:55.330Z,32.60
2023-09-09T11:42:25.411Z,32.60
2023-09-09T11:44:54.974Z,33.23
2023-09-09T11:47:26.242Z,33.39
2023-09-09T11:49:58.663Z,34.18
2023-09-09T11:52:34.546Z,34.00
2023-09-09T11:55:03.627Z,33.20
2023-09-09T11:57:33.029Z,34.19
2023-09-09T12:00:08.302Z,34.90
2023-09-09T12:02:40.662Z,35.13
2023-09-09T12:05:13.332Z,35.83
2023-09-09T12:07:50.606Z,36.09
2023-09-09T12:10:26.282Z,35.84
2023-09-09T12:12:58.956Z,35.78
2023-09-09T12:15:33.829Z,36.19
2023-09-09T12:18:13.636Z,35.47
2023-09-09T12:21:18.976Z,36.07
2023-09-09T12:23:53.763Z,35.28
2023-09-09T12:26:26.368Z,35.91
2023-09-09T12:29:15.642Z,36.78
2023-09-09T12:32:01.514Z,36.91
2023-09-09T12:34:28.749Z,37.88
2023-09-09T12:37:05.658Z,37.87
2023-09-09T12:39:37.731Z,36.94
2023-09-09T12:42:13.248Z,36.71
2023-09-09T12:44:52.388Z,38.03
2023-09-09T12:47:25.997Z,38.59
2023-09-09T12:49:55.948Z,38.78
2023-09-09T12:52:25.564Z,38.05
2023-09-09T12:54:54.847Z,37.90
2023-09-09T12:57:26.884Z,38.76
2023-09-09T12:59:59.225Z,39.04
2023-09-09T13:02:28.746Z,38.99
2023-09-09T13:05:02.359Z,38.49
2023-09-09T13:07:31.938Z,38.60
2023-09-09T13:10:01.778Z,36.91
2023-09-09T13:12:31.061Z,38.08
2023-09-09T13:15:00.538Z,37.56
2023-09-09T13:17:30.023Z,37.99
2023-09-09T13:20:05.458Z,36.84
2023-09-09T13:22:38.325Z,39.03
2023-09-09T13:25:11.056Z,37.93
2023-09-09T13:27:41.244Z,38.05
2023-09-09T13:30:13.744Z,37.28
2023-09-09T13:32:46.410Z,38.78
2023-09-09T13:35:18.465Z,40.57
2023-09-09T13:37:48.285Z,40.75
2023-09-09T13:40:21.417Z,41.22
2023-09-09T13:42:56.691Z,41.25
2023-09-09T13:45:32.205Z,40.22
2023-09-09T13:48:04.176Z,39.49
2023-09-09T13:50:39.004Z,39.68
2023-09-09T13:53:08.647Z,39.84
2023-09-09T13:55:35.146Z,40.03
2023-09-09T13:58:01.620Z,38.71
2023-09-09T14:00:28.183Z,40.39
2023-09-09T14:02:54.776Z,41.23
2023-09-09T14:05:24.817Z,40.23
2023-09-09T14:07:53.760Z,40.03
2023-09-09T14:10:25.886Z,40.71
2023-09-09T14:12:55.645Z,40.38
2023-09-09T14:15:25.206Z,40.20
2023-09-09T14:17:57.824Z,40.13
2023-09-09T14:20:33.453Z,41.43
2023-09-09T14:23:05.325Z,41.91
2023-09-09T14:25:36.110Z,40.55
2023-09-09T14:28:07.432Z,40.37
2023-09-09T14:30:42.574Z,39.17
2023-09-09T14:33:11.552Z,40.60
2023-09-09T14:35:45.539Z,39.02
2023-09-09T14:38:15.326Z,39.74
2023-09-09T14:40:47.242Z,40.32
2023-09-09T14:43:19.633Z,39.63
2023-09-09T14:45:49.722Z,37.84
2023-09-09T14:48:24.882Z,38.48
2023-09-09T14:50:55.929Z,37.09
2023-09-09T14:53:22.932Z,35.71
2023-09-09T14:55:58.116Z,35.37
2023-09-09T14:58:25.772Z,34.52
2023-09-09T15:01:00.284Z,34.00
2023-09-09T15:03:40.070Z,33.96
2023-09-09T15:06:12.562Z,33.69
2023-09-09T15:08:45.875Z,33.66
2023-09-09T15:11:18.290Z,33.34
2023-09-09T15:13:50.056Z,33.18
2023-09-09T15:16:26.664Z,33.38
2023-09-09T15:18:56.391Z,33.12
2023-09-09T15:21:28.937Z,33.22
2023-09-09T15:24:00.511Z,33.20
2023-09-09T15:26:38.237Z,33.09
2023-09-09T15:29:05.912Z,33.40
2023-09-09T15:31:38.809Z,33.38
2023-09-09T15:34:10.952Z,33.23
2023-09-09T15:36:43.129Z,32.77
2023-09-09T15:39:14.823Z,32.95
2023-09-09T15:41:47.282Z,33.15
2023-09-09T15:44:19.230Z,33.46
2023-09-09T15:46:49.013Z,33.39
2023-09-09T15:49:24.141Z,33.36
2023-09-09T15:51:53.478Z,33.67
2023-09-09T15:54:25.906Z,34.41
2023-09-09T15:56:57.885Z,35.20
2023-09-09T15:59:29.912Z,35.86
2023-09-09T16:01:59.362Z,36.51
2023-09-09T16:04:37.386Z,36.21
2023-09-09T16:07:10.685Z,36.28
2023-09-09T16:09:43.352Z,35.35
2023-09-09T16:12:12.767Z,34.94
2023-09-09T16:14:42.240Z,33.60
2023-09-09T16:17:22.805Z,33.21
2023-09-09T16:19:55.641Z,32.47
2023-09-09T16:22:30.757Z,32.23
2023-09-09T16:25:06.433Z,31.99
2023-09-09T16:27:36.392Z,31.09
2023-09-09T16:30:12.870Z,31.41
2023-09-09T16:32:45.281Z,31.58
2023-09-09T16:35:16.578Z,32.11
2023-09-09T16:37:55.234Z,32.15
2023-09-09T16:40:27.257Z,32.06
2023-09-09T16:42:56.657Z,32.17
2023-09-09T16:45:28.960Z,32.36
2023-09-09T16:48:01.154Z,31.83
2023-09-09T16:50:37.388Z,31.73
2023-09-09T16:53:14.082Z,31.53
2023-09-09T16:55:46.883Z,31.71
2023-09-09T16:58:16.390Z,31.62
2023-09-09T17:00:49.954Z,31.18
2023-09-09T17:03:16.997Z,31.03
2023-09-09T17:05:46.057Z,30.67
2023-09-09T17:08:15.527Z,30.14
2023-09-09T17:10:47.960Z,29.67
2023-09-09T17:13:23.900Z,29.43
2023-09-09T17:15:56.289Z,28.87
2023-09-09T17:18:29.214Z,28.47
2023-09-09T17:21:06.828Z,28.39
2023-09-09T17:23:37.357Z,28.43
2023-09-09T17:26:09.967Z,28.43
2023-09-09T17:28:39.599Z,28.43
2023-09-09T17:31:11.336Z,28.33
2023-09-09T17:33:46.911Z,28.32
2023-09-09T17:36:19.234Z,28.07
2023-09-09T17:38:54.747Z,27.96
2023-09-09T17:41:27.198Z,27.66
2023-09-09T17:43:59.318Z,27.39
2023-09-09T17:46:31.965Z,27.31
2023-09-09T17:49:05.086Z,27.15
2023-09-09T17:51:40.273Z,26.98
2023-09-09T17:54:15.769Z,26.81
2023-09-09T17:56:53.857Z,26.68
2023-09-09T17:59:30.154Z,26.62
2023-09-09T18:02:02.264Z,26.36
2023-09-09T18:04:37.379Z,26.38
2023-09-09T18:07:04.621Z,26.17
2023-09-09T18:09:34.593Z,25.91
2023-09-09T18:12:08.055Z,25.80
2023-09-09T18:14:43.328Z,25.81
2023-09-09T18:17:16.055Z,25.72
2023-09-09T18:19:48.576Z,25.46
2023-09-09T18:22:18.588Z,25.23
2023-09-09T18:24:47.829Z,25.10
2023-09-09T18:27:14.551Z,24.89
2023-09-09T18:29:46.651Z,24.69
2023-09-09T18:32:18.999Z,24.61
2023-09-09T18:34:46.175Z,24.60
2023-09-09T18:37:18.629Z,24.47
2023-09-09T18:39:47.612Z,24.32
2023-09-09T18:42:19.117Z,24.17
2023-09-09T18:44:48.252Z,24.30
2023-09-09T18:47:23.189Z,24.12
2023-09-09T18:49:55.759Z,24.03
2023-09-09T18:52:28.516Z,23.86
2023-09-09T18:54:58.077Z,23.63
2023-09-09T18:57:26.073Z,23.78
2023-09-09T18:59:55.335Z,23.78
2023-09-09T19:02:29.889Z,23.73
2023-09-09T19:04:57.432Z,23.59
2023-09-09T19:07:37.030Z,23.58
2023-09-09T19:10:07.501Z,23.45
2023-09-09T19:12:42.036Z,23.47
2023-09-09T19:15:14.049Z,23.26
2023-09-09T19:17:46.281Z,23.28
2023-09-09T19:20:16.272Z,23.13
2023-09-09T19:22:48.408Z,23.13
2023-09-09T19:25:26.298Z,23.05
2023-09-09T19:28:00.748Z,23.14
2023-09-09T19:30:33.092Z,23.02
2023-09-09T19:33:13.264Z,22.85
2023-09-09T19:35:51.272Z,22.69
2023-09-09T19:38:22.569Z,22.61
2023-09-09T19:40:50.041Z,22.78
2023-09-09T19:43:21.897Z,22.71
2023-09-09T19:45:54.084Z,22.74
2023-09-09T19:48:26.073Z,22.45
2023-09-09T19:50:58.774Z,22.29
2023-09-09T19:53:26.639Z,22.23
2023-09-09T19:55:58.716Z,22.28
2023-09-09T19:58:30.372Z,22.10
2023-09-09T20:01:02.294Z,22.17
2023-09-09T20:03:32.254Z,22.16
2023-09-09T20:06:08.064Z,22.12
2023-09-09T20:08:40.905Z,22.10
2023-09-09T20:11:10.159Z,21.87
2023-09-09T20:13:39.828Z,22.00
2023-09-09T20:16:09.824Z,22.06
2023-09-09T20:18:41.925Z,22.04
2023-09-09T20:21:11.547Z,22.03
2023-09-09T20:23:46.431Z,21.98
2023-09-09T20:26:24.378Z,22.02
2023-09-09T20:28:56.762Z,22.02
2023-09-09T20:31:31.877Z,22.00
2023-09-09T20:34:06.402Z,21.92
2023-09-09T20:36:40.476Z,21.84
2023-09-09T20:39:11.640Z,21.80
2023-09-09T20:41:50.423Z,21.77
2023-09-09T20:44:21.889Z,21.68
2023-09-09T20:46:51.186Z,21.54
2023-09-09T20:49:22.667Z,21.48
2023-09-09T20:51:55.110Z,21.47
2023-09-09T20:54:27.926Z,21.26
2023-09-09T20:56:56.891Z,21.20
2023-09-09T20:59:29.003Z,21.16
2023-09-09T21:02:04.235Z,21.08
2023-09-09T21:04:37.107Z,21.06
2023-09-09T21:07:06.118Z,21.08
2023-09-09T21:09:38.367Z,21.24
2023-09-09T21:12:10.768Z,21.18
2023-09-09T21:14:45.243Z,21.20
2023-09-09T21:17:14.286Z,21.08
2023-09-09T21:19:49.820Z,20.91
2023-09-09T21:22:16.415Z,20.82
2023-09-09T21:24:49.230Z,20.93
2023-09-09T21:27:21.657Z,20.96
2023-09-09T21:29:53.018Z,20.75
2023-09-09T21:32:26.351Z,20.62
2023-09-09T21:34:55.867Z,20.75
2023-09-09T21:37:30.562Z,20.88
2023-09-09T21:40:02.666Z,20.83
2023-09-09T21:42:32.416Z,20.70
2023-09-09T21:45:04.602Z,20.59
2023-09-09T21:47:35.949Z,20.70
2023-09-09T21:50:05.755Z,20.46
2023-09-09T21:52:39.940Z,20.57
2023-09-09T21:55:13.193Z,20.50
2023-09-09T21:57:44.450Z,20.58
2023-09-09T22:00:28.791Z,20.38
2023-09-09T22:03:00.982Z,20.26
2023-09-09T22:05:30.351Z,20.14
2023-09-09T22:08:04.647Z,20.19
2023-09-09T22:10:39.961Z,20.27
2023-09-09T22:13:11.593Z,20.28
2023-09-09T22:15:43.568Z,20.10
2023-09-09T22:18:13.277Z,20.19
2023-09-09T22:20:45.618Z,20.16
2023-09-09T22:23:15.398Z,20.21
2023-09-09T22:25:47.791Z,20.18
2023-09-09T22:28:17.469Z,20.13
2023-09-09T22:30:46.153Z,20.02
2023-09-09T22:33:18.708Z,20.03
2023-09-09T22:35:48.156Z,20.07
2023-09-09T22:38:17.473Z,20.06
2023-09-09T22:40:49.144Z,19.93
2023-09-09T22:43:20.614Z,20.03
2023-09-09T22:45:52.445Z,19.99
2023-09-09T22:48:24.474Z,19.91
2023-09-09T22:50:53.672Z,19.71
2023-09-09T22:53:31.211Z,19.65
2023-09-09T22:56:03.735Z,19.55
2023-09-09T22:58:34.544Z,19.64
2023-09-09T23:01:08.213Z,19.75
2023-09-09T23:03:40.286Z,19.76
2023-09-09T23:06:09.733Z,19.87
2023-09-09T23:08:36.711Z,19.85
2023-09-09T23:11:14.139Z,19.86
2023-09-09T23:13:46.162Z,19.88
2023-09-09T23:16:16.838Z,19.82
2023-09-09T23:18:46.296Z,19.70
2023-09-09T23:21:15.302Z,19.51
2023-09-09T23:23:50.336Z,19.40
2023-09-09T23:26:25.332Z,19.41
2023-09-09T23:28:58.622Z,19.55
2023-09-09T23:31:25.547Z,19.53
2023-09-09T23:33:54.635Z,19.46
2023-09-09T23:36:26.803Z,19.58
2023-09-09T23:39:02.758Z,19.69
2023-09-09T23:41:38.565Z,19.55
2023-09-09T23:44:05.864Z,19.42
2023-09-09T23:46:40.408Z,19.45
2023-09-09T23:49:08.898Z,19.51
2023-09-09T23:51:36.045Z,19.55
2023-09-09T23:54:04.147Z,19.44
2023-09-09T23:56:31.058Z,19.26
2023-09-09T23:59:00.548Z,19.18
